• Join FlightAware (Why Join?)
  • Login
  • US Flag 
01:03AM EDT


 

Airport Tracker/Info


-or-


 

Live Flight TrackerFlight Track Log ✈ N618JB ✈ 11-Apr-2013 ✈ KSYR - KMCO

Flight Track Log - Related Links

Times and Time Zones

All times are in EDT time to prevent confusion due to time zone crossing. See the N618JB flight status page for this flight to view local times or setup timezone preferences in your user account.

Time Position Orientation Groundspeed Altitude Reporting Facility
EDT Latitude Longitude Course Direction KTS MPH feet Rate Location/Type
07:06PM 43.1089 -76.0922 204° Southwest 167 192 1,300  Level Boston Center
07:07PM 43.0786 -76.0619 144° Southeast 215 247 2,800 2,400 Climbing Boston Center
07:08PM 43.0203 -76.1267 219° Southwest 289 333 6,000 3,420 Climbing Boston Center
07:09PM 42.7589 -76.4987 210° Southwest  Level FlightAware Approximate
07:09PM 42.9803 -76.1981 233° Southwest 224 258 9,800  Level Boston Center
07:10PM 42.6605 -76.5752 210° Southwest  Level FlightAware Approximate
07:11PM 42.5827 -76.6404 204° Southwest  Level FlightAware Approximate
07:11PM 42.8464 -76.4194 231° Southwest 321 369 11,600  Level New York Center
07:12PM 42.7778 -76.5036 222° Southwest 338 389 14,300 2,340 Climbing New York Center
07:13PM 42.6914 -76.5722 210° Southwest 343 395 16,300 1,680 Climbing New York Center
07:14PM 42.6094 -76.6325 208° Southwest 362 417 17,700 1,740 Climbing New York Center
07:15PM 42.5142 -76.7056 209° Southwest 388 447 19,900 2,040 Climbing New York Center
07:16PM 42.4189 -76.7783 209° Southwest 398 458 21,900 1,500 Climbing New York Center
07:17PM 42.3236 -76.8511 209° Southwest 398 458 23,000 660 Climbing New York Center
07:18PM 42.2306 -76.9208 209° Southwest 392 451 23,300 720 Climbing New York Center
07:19PM 42.1331 -76.9956 210° Southwest 397 457 24,500 1,200 Climbing New York Center
07:20PM 42.0372 -77.0733 211° Southwest 397 457 25,800 1,320 Climbing New York Center
07:21PM 41.9414 -77.1561 213° Southwest 408 470 27,200 1,200 Climbing New York Center
07:22PM 41.8411 -77.2356 211° Southwest 408 470 28,300 1,200 Climbing New York Center
07:23PM 41.7386 -77.3203 212° Southwest 420 483 29,600 1,200 Climbing New York Center
07:24PM 41.6403 -77.4050 213° Southwest 425 489 30,700 1,380 Climbing New York Center
07:25PM 41.5400 -77.4839 210° Southwest 430 495 32,500 1,560 Climbing New York Center
07:26PM 41.4458 -77.5658 213° Southwest 430 495 33,900 720 Climbing New York Center
07:27PM 41.3431 -77.6467 211° Southwest 419 482 34,000  Climbing New York Center
07:29PM 41.1303 -77.8181 211° Southwest 406 467 34,000  Level Cleveland Center
07:30PM 41.0342 -77.8964 212° Southwest 406 467 34,000  Level Cleveland Center
07:31PM 40.9400 -77.9744 212° Southwest 406 467 34,000  Level Cleveland Center
07:32PM 40.8589 -78.0739 223° Southwest 401 461 34,000  Level Cleveland Center
07:33PM 40.7903 -78.1861 231° Southwest 395 455 34,000  Level Cleveland Center
07:34PM 40.7197 -78.2983 230° Southwest 395 455 34,000  Level Cleveland Center
07:35PM 40.6489 -78.4047 229° Southwest 400 460 34,000  Level Cleveland Center
07:36PM 40.5781 -78.5192 231° Southwest 400 460 34,000  Level Cleveland Center
07:37PM 40.5050 -78.6281 229° Southwest 405 466 34,000  Level Cleveland Center
07:38PM 40.4336 -78.7364 229° Southwest 405 466 34,000  Level Cleveland Center
07:39PM 40.3369 -78.8125 211° Southwest 405 466 34,000  Level Cleveland Center
07:40PM 40.2294 -78.8781 205° Southwest 410 472 34,000  Level Cleveland Center
07:42PM 40.0578 -78.9850 205° Southwest 399 459 34,000  Level Washington Center
07:43PM 39.9539 -79.0478 205° Southwest 410 472 34,000  Level Washington Center
07:44PM 39.8478 -79.1131 205° Southwest 415 478 34,000  Level Washington Center
07:45PM 39.7458 -79.1756 205° Southwest 415 478 34,000  Level Washington Center
07:46PM 39.6358 -79.2319 202° Southwest 420 483 34,000  Level Washington Center
07:47PM 39.5139 -79.2661 192° South 436 502 34,100  Climbing Washington Center
07:48PM 39.4025 -79.2956 192° South 426 490 34,000 -60 Descending Washington Center
07:49PM 39.2869 -79.3269 192° South 421 484 34,000  Level Washington Center
07:50PM 39.1733 -79.3614 193° South 421 484 34,000  Level Washington Center
07:51PM 39.0617 -79.3958 193° South 415 478 34,000  Level Washington Center
07:52PM 38.9378 -79.4267 191° South 429 494 34,000  Level Washington Center
07:53PM 38.8200 -79.4606 193° South 434 499 34,000  Level Washington Center
07:54PM 38.7122 -79.5000 196° South 429 494 34,000  Level Washington Center
07:55PM 38.5967 -79.5311 192° South 429 494 34,000 120 Level Washington Center
07:56PM 38.4661 -79.5667 192° South 429 494 34,300 780 Climbing Washington Center
07:57PM 38.3544 -79.5978 192° South 429 494 35,600 840 Climbing Washington Center
07:58PM 38.2408 -79.6314 193° South 429 494 36,000 180 Climbing Washington Center
07:59PM 38.1397 -79.6603 193° South 423 487 36,000  Level Washington Center
08:00PM 38.0219 -79.6908 192° South 423 487 36,000  Level Washington Center
08:01PM 37.9081 -79.7239 193° South 423 487 36,000  Level Washington Center
08:02PM 37.7797 -79.7589 192° South 429 494 36,000  Level Washington Center
08:03PM 37.6619 -79.7839 190° South 429 494 36,000  Level Washington Center
08:04PM 37.5481 -79.8197 194° South 429 494 36,000  Level Washington Center
08:05PM 37.4406 -79.8528 194° South 429 494 36,000  Level Washington Center
08:06PM 37.3225 -79.8828 191° South 435 501 36,000  Level Washington Center
08:07PM 37.2047 -79.9128 191° South 435 501 36,000  Level Washington Center
08:09PM 36.9544 -79.9789 192° South 439 505 36,000  Level Atlanta Center
08:10PM 36.8347 -80.0083 191° South 444 511 36,000  Level Atlanta Center
08:11PM 36.7292 -80.0372 192° South 444 511 36,000  Level Atlanta Center
08:12PM 36.6094 -80.0689 192° South 444 511 36,000  Level Atlanta Center
08:13PM 36.4914 -80.1006 192° South 444 511 36,000  Level Atlanta Center
08:14PM 36.3714 -80.1297 191° South 444 511 36,000  Level Atlanta Center
08:15PM 36.2411 -80.1644 192° South 444 511 36,000  Level Atlanta Center
08:16PM 36.1214 -80.1983 193° South 449 517 36,000  Level Atlanta Center
08:17PM 36.0033 -80.2272 191° South 449 517 36,000  Level Atlanta Center
08:18PM 35.8956 -80.2553 192° South 443 510 36,000  Level Atlanta Center
08:19PM 35.7800 -80.2889 193° South 438 504 36,000  Level Atlanta Center
08:20PM 35.6619 -80.3197 192° South 438 504 36,000  Level Atlanta Center
08:21PM 35.5336 -80.3536 192° South 438 504 36,000  Level Atlanta Center
08:22PM 35.4156 -80.3844 192° South 438 504 36,000  Level Atlanta Center
08:23PM 35.2997 -80.4150 192° South 438 504 36,000  Level Atlanta Center
08:26PM 35.0028 -80.4928 192° South 413 475 36,000  Level Jacksonville Center
08:27PM 34.8822 -80.5214 191° South 432 497 36,000  Level Jacksonville Center
08:28PM 34.7578 -80.5578 194° South 427 491 36,000 -60 Level Jacksonville Center
08:29PM 34.6414 -80.5836 190° South 427 491 35,900  Descending Jacksonville Center
08:30PM 34.5253 -80.6169 193° South 432 497 36,000  Climbing Jacksonville Center
08:31PM 34.4089 -80.6450 191° South 432 497 36,000  Level Jacksonville Center
08:32PM 34.2947 -80.6733 192° South 432 497 36,000 -60 Level Jacksonville Center
08:33PM 34.1764 -80.7039 192° South 432 497 35,900 -60 Descending Jacksonville Center
08:34PM 34.0619 -80.7342 192° South 432 497 35,900  Level Jacksonville Center
08:35PM 33.9456 -80.7597 190° South 427 491 36,000  Climbing Jacksonville Center
08:36PM 33.8272 -80.7875 191° South 427 491 36,000  Level Jacksonville Center
08:37PM 33.7086 -80.8153 191° South 432 497 36,000  Level Jacksonville Center
08:38PM 33.5919 -80.8281 185° South 432 497 36,000 -60 Level Jacksonville Center
08:39PM 33.4733 -80.8433 186° South 432 497 35,900  Descending Jacksonville Center
08:40PM 33.3525 -80.8561 185° South 427 491 36,000  Climbing Jacksonville Center
08:41PM 33.2317 -80.8686 185° South 432 497 36,000  Level Jacksonville Center
08:42PM 33.1150 -80.8811 185° South 432 497 36,000  Level Jacksonville Center
08:43PM 32.9983 -80.8964 186° South 426 490 36,000 -60 Level Jacksonville Center
08:44PM 32.8858 -80.9086 185° South 421 484 35,900 -60 Descending Jacksonville Center
08:45PM 32.7711 -80.9211 185° South 421 484 35,900  Level Jacksonville Center
08:46PM 32.6669 -80.9333 186° South 421 484 35,900  Level Jacksonville Center
08:47PM 32.5483 -80.9456 185° South 421 484 36,000  Climbing Jacksonville Center
08:48PM 32.4336 -80.9578 185° South 421 484 36,000  Level Jacksonville Center
08:49PM 32.3064 -80.9728 186° South 421 484 36,000  Level Jacksonville Center
08:50PM 32.1919 -80.9828 184° South 428 493 36,000  Level Jacksonville Center
08:51PM 32.0856 -80.9947 185° South 428 493 36,000  Level Jacksonville Center
08:52PM 31.9542 -81.0097 186° South 423 487 36,000  Level Jacksonville Center
08:53PM 31.8397 -81.0242 186° South 423 487 36,000  Level Jacksonville Center
08:54PM 31.7311 -81.0361 185° South 423 487 36,100 -420 Climbing Jacksonville Center
08:55PM 31.6019 -81.0486 185° South 423 487 35,200 -960 Descending Jacksonville Center
08:56PM 31.4997 -81.0603 186° South 418 481 34,200 -600 Descending Jacksonville Center
08:57PM 31.3683 -81.0725 185° South 428 493 34,000 -120 Descending Jacksonville Center
08:58PM 31.2475 -81.0894 187° South 435 501 34,000  Level Jacksonville Center
08:59PM 31.1286 -81.1014 185° South 429 494 34,000  Level Jacksonville Center
09:00PM 31.0100 -81.1133 185° South 429 494 34,000  Level Jacksonville Center
09:01PM 30.8911 -81.1278 186° South 429 494 34,000 -60 Level Jacksonville Center
09:02PM 30.7744 -81.1397 185° South 429 494 33,900 -60 Descending Jacksonville Center
09:03PM 30.6533 -81.1514 185° South 429 494 33,900  Level Jacksonville Center
09:04PM 30.5344 -81.1514 180° South 429 494 33,900  Level Jacksonville Center
09:05PM 30.4133 -81.1486 179° South 429 494 33,900  Level Jacksonville Center
09:06PM 30.2881 -81.1436 178° South 440 506 34,000  Climbing Jacksonville Center
09:07PM 30.1625 -81.1389 178° South 445 512 34,000 -1,260 Level Jacksonville Center
09:08PM 30.0353 -81.1364 179° South 451 519 31,500 -2,580 Descending Jacksonville Center
09:09PM 29.9058 -81.1314 178° South 461 531 28,900 -2,400 Descending Jacksonville Center
09:10PM 29.7825 -81.1267 178° South 456 525 26,700 -2,220 Descending Jacksonville Center
09:11PM 29.6678 -81.1286 181° South 443 510 24,500 -2,280 Descending Jacksonville Center
09:12PM 29.5550 -81.1233 178° South 418 481 22,200 -2,100 Descending Jacksonville Center
09:13PM 29.4589 -81.1181 177° South 397 457 20,400 -2,100 Descending Jacksonville Center
09:14PM 29.3503 -81.1153 179° South 392 451 18,000 -2,340 Descending Jacksonville Center
09:15PM 29.2458 -81.1100 177° South 387 445 15,800 -2,160 Descending Jacksonville Center
09:16PM 29.1456 -81.1022 176° South 375 432 13,700 -1,920 Descending Jacksonville Center
09:17PM 29.0514 -81.0922 175° South 361 415 12,000 -1,140 Descending Jacksonville Center
09:18PM 28.9700 -81.0842 175° South 330 380 11,500 -1,140 Descending Jacksonville Center
09:19PM 28.8925 -81.0714 172° South 299 344 9,800 -1,620 Descending Jacksonville Center
09:20PM 28.8150 -81.0608 173° South 285 328 8,300 -1,200 Descending Jacksonville Center
09:21PM 28.7614 -81.0950 209° Southwest 238 274 7,500 -840 Descending Jacksonville Center
09:22PM 28.7394 -81.1642 250° West 211 243 6,700 -1,020 Descending Jacksonville Center
09:23PM 28.6833 -81.2167 219° Southwest 212 244 5,500 -1,140 Descending Orlando TRACON
09:24PM 28.6500 -81.2500 221° Southwest 209 241 4,500 -960 Descending Orlando TRACON
09:25PM 28.6000 -81.2833 210° Southwest 185 213 3,600 -960 Descending Orlando TRACON
09:26PM 28.5667 -81.3167 221° Southwest 150 173 2,600 -960 Descending Orlando TRACON
09:27PM 28.5167 -81.3333 196° South 141 162 1,600 -840 Descending Orlando TRACON
09:28PM 28.4833 -81.3333 180° South 134 154 900 -720 Descending Orlando TRACON
09:30PM 28.4294 -81.3090 127° Southeast  Level Estimated